Time,TemperatureF,DewpointF,PressureIn,WindDirection,WindDirectionDegrees,WindSpeedMPH,WindSpeedGustMPH,Humidity,HourlyPrecipIn,Conditions,Clouds,dailyrainin,SolarRadiationWatts/m^2,SoftwareType,DateUTC
2013-08-31 00:04:00,58.2,56.0,29.91,North,5,0.0,0.0,93,0.00,,,0.00,0,weatherlink.com 1.10,2013-08-31 07:04:00,
2013-08-31 00:19:00,58.1,56.0,29.91,North,5,0.0,0.0,94,0.00,,,0.00,0,weatherlink.com 1.10,2013-08-31 07:19:00,
2013-08-31 00:34:00,58.0,56.0,29.91,North,5,0.0,0.0,93,0.00,,,0.00,0,weatherlink.com 1.10,2013-08-31 07:34:00,
2013-08-31 00:49:00,57.8,56.0,29.91,North,5,0.0,0.0,94,0.00,,,0.00,0,weatherlink.com 1.10,2013-08-31 07:49:00,
2013-08-31 01:04:00,57.5,56.0,29.91,North,5,0.0,0.0,94,0.00,,,0.00,0,weatherlink.com 1.10,2013-08-31 08:04:00,
2013-08-31 01:19:00,57.2,56.0,29.90,North,5,0.0,0.0,94,0.00,,,0.00,0,weatherlink.com 1.10,2013-08-31 08:19:00,
2013-08-31 01:34:00,56.5,55.0,29.90,North,5,0.0,0.0,94,0.00,,,0.00,0,weatherlink.com 1.10,2013-08-31 08:34:00,
2013-08-31 01:49:00,56.2,55.0,29.90,North,5,0.0,0.0,94,0.00,,,0.00,0,weatherlink.com 1.10,2013-08-31 08:49:00,
2013-08-31 02:04:00,56.5,55.0,29.89,North,5,0.0,0.0,95,0.00,,,0.00,0,weatherlink.com 1.10,2013-08-31 09:04:00,
2013-08-31 02:19:00,56.3,55.0,29.89,North,5,0.0,0.0,95,0.00,,,0.00,0,weatherlink.com 1.10,2013-08-31 09:19:00,
2013-08-31 02:34:00,55.7,54.0,29.90,North,5,0.0,0.0,94,0.00,,,0.00,0,weatherlink.com 1.10,2013-08-31 09:34:00,
2013-08-31 02:49:00,55.2,54.0,29.89,North,5,0.0,0.0,95,0.00,,,0.00,0,weatherlink.com 1.10,2013-08-31 09:49:00,
2013-08-31 03:04:00,55.0,54.0,29.89,North,5,0.0,0.0,95,0.00,,,0.00,0,weatherlink.com 1.10,2013-08-31 10:04:00,
2013-08-31 03:19:00,54.7,53.0,29.89,North,5,0.0,0.0,95,0.00,,,0.00,0,weatherlink.com 1.10,2013-08-31 10:19:00,
2013-08-31 03:35:00,54.4,53.0,29.89,North,5,0.0,0.0,95,0.00,,,0.00,0,weatherlink.com 1.10,2013-08-31 10:35:00,
2013-08-31 03:50:00,53.8,52.0,29.89,North,5,0.0,0.0,95,0.00,,,0.00,0,weatherlink.com 1.10,2013-08-31 10:50:00,
2013-08-31 04:05:00,53.7,52.0,29.90,North,5,0.0,0.0,95,0.00,,,0.00,0,weatherlink.com 1.10,2013-08-31 11:05:00,
2013-08-31 04:20:00,53.5,52.0,29.89,North,5,0.0,0.0,96,0.00,,,0.00,0,weatherlink.com 1.10,2013-08-31 11:20:00,
2013-08-31 04:35:00,53.1,52.0,29.89,North,5,0.0,0.0,95,0.00,,,0.00,0,weatherlink.com 1.10,2013-08-31 11:35:00,
2013-08-31 04:50:00,52.7,51.0,29.90,North,5,0.0,0.0,95,0.00,,,0.00,0,weatherlink.com 1.10,2013-08-31 11:50:00,
2013-08-31 05:05:00,52.5,51.0,29.90,North,5,0.0,0.0,95,0.00,,,0.00,0,weatherlink.com 1.10,2013-08-31 12:05:00,
2013-08-31 05:20:00,52.4,51.0,29.90,North,5,0.0,0.0,96,0.00,,,0.00,0,weatherlink.com 1.10,2013-08-31 12:20:00,
2013-08-31 05:35:00,51.9,51.0,29.91,North,5,0.0,0.0,95,0.00,,,0.00,0,weatherlink.com 1.10,2013-08-31 12:35:00,
2013-08-31 05:50:00,52.1,51.0,29.91,North,5,0.0,0.0,96,0.00,,,0.00,0,weatherlink.com 1.10,2013-08-31 12:50:00,
2013-08-31 06:05:00,51.9,51.0,29.91,North,5,0.0,0.0,96,0.00,,,0.00,0,weatherlink.com 1.10,2013-08-31 13:05:00,
2013-08-31 06:20:00,51.4,50.0,29.92,North,5,0.0,0.0,96,0.00,,,0.00,0,weatherlink.com 1.10,2013-08-31 13:20:00,
2013-08-31 06:35:00,51.3,50.0,29.92,North,5,0.0,0.0,95,0.00,,,0.00,0,weatherlink.com 1.10,2013-08-31 13:35:00,
2013-08-31 06:50:00,51.1,50.0,29.92,North,5,0.0,0.0,95,0.00,,,0.00,7,weatherlink.com 1.10,2013-08-31 13:50:00,
2013-08-31 07:05:00,50.9,50.0,29.93,North,5,0.0,0.0,95,0.00,,,0.00,14,weatherlink.com 1.10,2013-08-31 14:05:00,
2013-08-31 07:20:00,51.8,51.0,29.93,North,5,0.0,0.0,96,0.00,,,0.00,56,weatherlink.com 1.10,2013-08-31 14:20:00,
2013-08-31 07:35:00,53.5,52.0,29.93,North,5,0.0,0.0,96,0.00,,,0.00,104,weatherlink.com 1.10,2013-08-31 14:35:00,
2013-08-31 07:50:00,54.9,53.0,29.93,North,5,0.0,0.0,94,0.00,,,0.00,160,weatherlink.com 1.10,2013-08-31 14:50:00,
2013-08-31 08:05:00,56.2,54.0,29.93,North,5,0.0,0.0,93,0.00,,,0.00,209,weatherlink.com 1.10,2013-08-31 15:05:00,
2013-08-31 08:20:00,58.2,56.0,29.93,North,5,0.0,0.0,92,0.00,,,0.00,255,weatherlink.com 1.10,2013-08-31 15:20:00,
2013-08-31 08:35:00,60.3,57.0,29.93,North,5,0.0,0.0,89,0.00,,,0.00,325,weatherlink.com 1.10,2013-08-31 15:35:00,
2013-08-31 08:50:00,60.7,57.0,29.93,North,5,0.0,0.0,88,0.00,,,0.00,374,weatherlink.com 1.10,2013-08-31 15:50:00,
2013-08-31 09:05:00,62.9,58.0,29.93,North,5,0.0,0.0,84,0.00,,,0.00,427,weatherlink.com 1.10,2013-08-31 16:05:00,
2013-08-31 09:20:00,63.4,58.0,29.93,North,5,0.0,0.0,81,0.00,,,0.00,461,weatherlink.com 1.10,2013-08-31 16:20:00,
2013-08-31 09:36:00,66.1,59.0,29.93,North,5,0.0,0.0,77,0.00,,,0.00,520,weatherlink.com 1.10,2013-08-31 16:36:00,
2013-08-31 09:51:00,66.6,60.0,29.93,North,5,0.0,0.0,78,0.00,,,0.00,570,weatherlink.com 1.10,2013-08-31 16:51:00,
2013-08-31 10:06:00,69.1,58.0,29.93,North,5,0.0,0.0,68,0.00,,,0.00,613,weatherlink.com 1.10,2013-08-31 17:06:00,
2013-08-31 10:21:00,71.0,58.0,29.93,North,5,0.0,0.0,64,0.00,,,0.00,654,weatherlink.com 1.10,2013-08-31 17:21:00,
2013-08-31 10:36:00,71.9,60.0,29.93,North,5,0.0,0.0,66,0.00,,,0.00,693,weatherlink.com 1.10,2013-08-31 17:36:00,
2013-08-31 10:51:00,73.8,59.0,29.92,North,5,0.0,0.0,61,0.00,,,0.00,726,weatherlink.com 1.10,2013-08-31 17:51:00,
2013-08-31 11:06:00,74.6,60.0,29.92,North,5,0.0,0.0,60,0.00,,,0.00,758,weatherlink.com 1.10,2013-08-31 18:06:00,
2013-08-31 11:21:00,76.3,60.0,29.92,North,5,0.0,0.0,58,0.00,,,0.00,789,weatherlink.com 1.10,2013-08-31 18:21:00,
2013-08-31 11:36:00,76.8,60.0,29.91,North,5,0.0,0.0,56,0.00,,,0.00,816,weatherlink.com 1.10,2013-08-31 18:36:00,
2013-08-31 11:51:00,77.3,60.0,29.91,North,5,0.0,0.0,56,0.00,,,0.00,838,weatherlink.com 1.10,2013-08-31 18:51:00,
2013-08-31 12:06:00,79.0,60.0,29.91,North,5,0.0,0.0,53,0.00,,,0.00,856,weatherlink.com 1.10,2013-08-31 19:06:00,
2013-08-31 12:21:00,78.9,61.0,29.91,North,5,0.0,0.0,54,0.00,,,0.00,872,weatherlink.com 1.10,2013-08-31 19:21:00,
2013-08-31 12:36:00,80.5,63.0,29.90,North,5,0.0,0.0,55,0.00,,,0.00,884,weatherlink.com 1.10,2013-08-31 19:36:00,
2013-08-31 12:51:00,80.6,61.0,29.90,North,5,0.0,0.0,52,0.00,,,0.00,891,weatherlink.com 1.10,2013-08-31 19:51:00,
2013-08-31 13:06:00,81.0,61.0,29.89,North,5,0.0,0.0,50,0.00,,,0.00,895,weatherlink.com 1.10,2013-08-31 20:06:00,
2013-08-31 13:21:00,82.5,63.0,29.89,North,5,0.0,0.0,52,0.00,,,0.00,893,weatherlink.com 1.10,2013-08-31 20:21:00,
2013-08-31 13:36:00,83.4,62.0,29.88,North,5,0.0,0.0,48,0.00,,,0.00,888,weatherlink.com 1.10,2013-08-31 20:36:00,
2013-08-31 13:51:00,83.1,61.0,29.88,North,5,0.0,0.0,48,0.00,,,0.00,882,weatherlink.com 1.10,2013-08-31 20:51:00,
2013-08-31 14:06:00,83.7,64.0,29.87,North,5,0.0,0.0,51,0.00,,,0.00,867,weatherlink.com 1.10,2013-08-31 21:06:00,
2013-08-31 14:21:00,84.2,61.0,29.88,North,5,0.0,0.0,45,0.00,,,0.00,849,weatherlink.com 1.10,2013-08-31 21:21:00,
2013-08-31 14:36:00,84.1,58.0,29.88,North,5,0.0,0.0,41,0.00,,,0.00,835,weatherlink.com 1.10,2013-08-31 21:36:00,
2013-08-31 14:52:00,83.6,56.0,29.87,North,5,0.0,0.0,39,0.00,,,0.00,807,weatherlink.com 1.10,2013-08-31 21:52:00,
2013-08-31 15:07:00,82.8,55.0,29.87,North,5,0.0,0.0,39,0.00,,,0.00,772,weatherlink.com 1.10,2013-08-31 22:07:00,
2013-08-31 15:22:00,83.0,54.0,29.87,North,5,0.0,0.0,37,0.00,,,0.00,742,weatherlink.com 1.10,2013-08-31 22:22:00,
2013-08-31 15:37:00,83.4,54.0,29.86,North,5,0.0,0.0,37,0.00,,,0.00,708,weatherlink.com 1.10,2013-08-31 22:37:00,
2013-08-31 15:52:00,83.5,54.0,29.85,North,5,0.0,0.0,36,0.00,,,0.00,668,weatherlink.com 1.10,2013-08-31 22:52:00,
2013-08-31 16:07:00,82.7,53.0,29.85,North,5,0.0,0.0,36,0.00,,,0.00,629,weatherlink.com 1.10,2013-08-31 23:07:00,
2013-08-31 16:22:00,82.0,54.0,29.85,North,5,0.0,0.0,38,0.00,,,0.00,582,weatherlink.com 1.10,2013-08-31 23:22:00,
2013-08-31 16:37:00,81.6,56.0,29.84,North,5,0.0,0.0,42,0.00,,,0.00,538,weatherlink.com 1.10,2013-08-31 23:37:00,
2013-08-31 16:52:00,80.5,56.0,29.84,North,5,0.0,0.0,43,0.00,,,0.00,490,weatherlink.com 1.10,2013-08-31 23:52:00,
2013-08-31 17:07:00,79.3,58.0,29.84,North,5,0.0,0.0,49,0.00,,,0.00,446,weatherlink.com 1.10,2013-09-01 00:07:00,
2013-08-31 17:22:00,77.6,56.0,29.84,North,5,0.0,0.0,47,0.00,,,0.00,392,weatherlink.com 1.10,2013-09-01 00:22:00,
2013-08-31 17:37:00,76.3,58.0,29.84,North,5,0.0,0.0,54,0.00,,,0.00,346,weatherlink.com 1.10,2013-09-01 00:37:00,
2013-08-31 17:52:00,74.3,58.0,29.84,North,5,0.0,0.0,57,0.00,,,0.00,288,weatherlink.com 1.10,2013-09-01 00:52:00,
2013-08-31 18:07:00,73.0,58.0,29.84,North,5,0.0,0.0,60,0.00,,,0.00,237,weatherlink.com 1.10,2013-09-01 01:07:00,
2013-08-31 18:22:00,71.7,58.0,29.84,North,5,0.0,0.0,62,0.00,,,0.00,186,weatherlink.com 1.10,2013-09-01 01:22:00,
2013-08-31 18:37:00,71.1,58.0,29.84,North,5,0.0,0.0,64,0.00,,,0.00,128,weatherlink.com 1.10,2013-09-01 01:37:00,
2013-08-31 18:52:00,69.3,57.0,29.84,North,5,0.0,0.0,66,0.00,,,0.00,72,weatherlink.com 1.10,2013-09-01 01:52:00,
2013-08-31 19:07:00,67.6,58.0,29.84,North,5,0.0,0.0,71,0.00,,,0.00,18,weatherlink.com 1.10,2013-09-01 02:07:00,
2013-08-31 19:22:00,66.0,57.0,29.84,North,5,0.0,0.0,72,0.00,,,0.00,12,weatherlink.com 1.10,2013-09-01 02:22:00,
2013-08-31 19:37:00,64.7,57.0,29.84,North,5,0.0,0.0,75,0.00,,,0.00,7,weatherlink.com 1.10,2013-09-01 02:37:00,
2013-08-31 19:52:00,63.0,56.0,29.85,North,5,0.0,0.0,78,0.00,,,0.00,0,weatherlink.com 1.10,2013-09-01 02:52:00,
2013-08-31 20:07:00,61.6,56.0,29.86,North,5,0.0,0.0,81,0.00,,,0.00,0,weatherlink.com 1.10,2013-09-01 03:07:00,
2013-08-31 20:22:00,60.1,55.0,29.86,North,5,0.0,0.0,84,0.00,,,0.00,0,weatherlink.com 1.10,2013-09-01 03:22:00,
2013-08-31 20:37:00,58.6,55.0,29.86,North,5,0.0,0.0,87,0.00,,,0.00,0,weatherlink.com 1.10,2013-09-01 03:37:00,
2013-08-31 20:52:00,57.8,55.0,29.87,North,5,0.0,0.0,89,0.00,,,0.00,0,weatherlink.com 1.10,2013-09-01 03:52:00,
2013-08-31 21:07:00,57.1,54.0,29.88,North,5,0.0,0.0,90,0.00,,,0.00,0,weatherlink.com 1.10,2013-09-01 04:07:00,
2013-08-31 21:22:00,56.6,54.0,29.88,North,5,0.0,0.0,91,0.00,,,0.00,0,weatherlink.com 1.10,2013-09-01 04:22:00,
2013-08-31 21:37:00,56.2,54.0,29.89,North,5,0.0,0.0,92,0.00,,,0.00,0,weatherlink.com 1.10,2013-09-01 04:37:00,
2013-08-31 21:52:00,56.0,54.0,29.89,North,5,0.0,0.0,93,0.00,,,0.00,0,weatherlink.com 1.10,2013-09-01 04:52:00,
2013-08-31 22:07:00,55.9,54.0,29.89,North,5,0.0,0.0,93,0.00,,,0.00,0,weatherlink.com 1.10,2013-09-01 05:07:00,
2013-08-31 22:22:00,55.7,54.0,29.89,North,5,0.0,0.0,93,0.00,,,0.00,0,weatherlink.com 1.10,2013-09-01 05:22:00,
2013-08-31 22:37:00,56.2,54.0,29.90,North,5,0.0,0.0,93,0.00,,,0.00,0,weatherlink.com 1.10,2013-09-01 05:37:00,
2013-08-31 22:52:00,56.0,54.0,29.90,North,5,0.0,0.0,93,0.00,,,0.00,0,weatherlink.com 1.10,2013-09-01 05:52:00,
2013-08-31 23:07:00,55.9,54.0,29.91,North,5,0.0,0.0,93,0.00,,,0.00,0,weatherlink.com 1.10,2013-09-01 06:07:00,
2013-08-31 23:22:00,55.7,54.0,29.91,North,5,0.0,0.0,93,0.00,,,0.00,0,weatherlink.com 1.10,2013-09-01 06:22:00,
2013-08-31 23:37:00,55.2,53.0,29.91,North,5,0.0,0.0,93,0.00,,,0.00,0,weatherlink.com 1.10,2013-09-01 06:37:00,
2013-08-31 23:52:00,55.1,53.0,29.91,North,5,0.0,0.0,93,0.00,,,0.00,0,weatherlink.com 1.10,2013-09-01 06:52:00,